Time;durP1;ratioP1;P1;durP2;ratioP2;P2;SDS_P1;SDS_P2;PMS_P1;PMS_P2;Temp;Humidity;BMP_temperature;BMP_pressure;BME280_temperature;BME280_humidity;BME280_pressure;Samples;Min_cycle;Max_cycle;Signal;HPM_P1;HPM_P2
2021/03/31 00:01:29;;;;;;;28.75;3.50;;;;;;;;;;4972110;28;20047;-60
2021/03/31 00:03:57;;;;;;;23.35;2.92;;;;;;;;;;4975675;28;20045;-62
2021/03/31 00:06:24;;;;;;;25.75;2.47;;;;;;;;;;4978069;28;20046;-66
2021/03/31 00:08:51;;;;;;;14.98;2.47;;;;;;;;;;4976537;28;20375;-57
2021/03/31 00:11:18;;;;;;;16.90;2.83;;;;;;;;;;4977421;28;20438;-58
2021/03/31 00:13:46;;;;;;;22.73;3.15;;;;;;;;;;4979535;28;20052;-56
2021/03/31 00:16:13;;;;;;;19.92;2.72;;;;;;;;;;4977401;28;20062;-59
2021/03/31 00:18:40;;;;;;;19.25;2.40;;;;;;;;;;4978636;28;20034;-66
2021/03/31 00:21:08;;;;;;;17.45;2.38;;;;;;;;;;4984797;28;20093;-58
2021/03/31 00:23:35;;;;;;;21.60;2.80;;;;;;;;;;4967019;28;20437;-61
2021/03/31 00:26:02;;;;;;;20.48;2.55;;;;;;;;;;4989274;28;20026;-55
2021/03/31 00:28:29;;;;;;;26.20;3.25;;;;;;;;;;4980124;28;20374;-60
2021/03/31 00:30:56;;;;;;;14.20;2.80;;;;;;;;;;4989948;28;20695;-62
2021/03/31 00:33:23;;;;;;;24.02;3.20;;;;;;;;;;4984023;28;20031;-61
2021/03/31 00:35:50;;;;;;;19.40;2.55;;;;;;;;;;4979403;28;20049;-60
2021/03/31 00:38:18;;;;;;;15.98;2.22;;;;;;;;;;4974650;28;20018;-60
2021/03/31 00:40:50;;;;;;;19.08;2.58;;;;;;;;;;4958724;28;20038;-60
2021/03/31 00:43:17;;;;;;;12.68;2.03;;;;;;;;;;4993129;28;20027;-60
2021/03/31 00:45:44;;;;;;;8.05;2.00;;;;;;;;;;4990794;28;20351;-61
2021/03/31 00:48:16;;;;;;;6.55;1.42;;;;;;;;;;4980344;28;20023;-62
2021/03/31 00:50:48;;;;;;;8.77;1.80;;;;;;;;;;4976705;28;20027;-60
2021/03/31 00:53:24;;;;;;;14.00;2.38;;;;;;;;;;4988106;28;20015;-61
2021/03/31 00:55:51;;;;;;;7.40;1.70;;;;;;;;;;4991615;28;20511;-60
2021/03/31 00:58:18;;;;;;;7.20;1.65;;;;;;;;;;4978107;28;20085;-54
2021/03/31 01:00:46;;;;;;;13.32;1.63;;;;;;;;;;4966945;28;20105;-51
2021/03/31 01:03:13;;;;;;;10.15;1.77;;;;;;;;;;4987884;28;20453;-61
2021/03/31 01:05:40;;;;;;;12.73;2.00;;;;;;;;;;4982260;28;20032;-58
2021/03/31 01:08:09;;;;;;;10.68;1.35;;;;;;;;;;4991298;28;20377;-60
2021/03/31 01:10:57;;;;;;;10.43;1.95;;;;;;;;;;4991373;28;20026;-60
2021/03/31 01:13:24;;;;;;;22.17;3.42;;;;;;;;;;4990044;28;20022;-59
2021/03/31 01:15:54;;;;;;;14.73;2.22;;;;;;;;;;4979022;28;20034;-59
2021/03/31 01:18:24;;;;;;;10.10;1.65;;;;;;;;;;4972218;28;20541;-57
2021/03/31 01:20:51;;;;;;;10.43;1.98;;;;;;;;;;4965120;28;20022;-60
2021/03/31 01:23:18;;;;;;;13.05;2.10;;;;;;;;;;4951168;28;20034;-60
2021/03/31 01:25:51;;;;;;;13.23;2.20;;;;;;;;;;4985854;28;20035;-58
2021/03/31 01:28:30;;;;;;;11.18;1.90;;;;;;;;;;4978167;28;20382;-60
2021/03/31 01:31:15;;;;;;;9.65;2.05;;;;;;;;;;4989360;28;20081;-62
2021/03/31 01:33:48;;;;;;;9.07;2.10;;;;;;;;;;4977767;28;20633;-60
2021/03/31 01:36:17;;;;;;;19.92;1.80;;;;;;;;;;4979000;28;20038;-61
2021/03/31 01:38:47;;;;;;;18.52;2.00;;;;;;;;;;4958705;28;20633;-61
2021/03/31 01:41:17;;;;;;;12.02;2.00;;;;;;;;;;4989916;28;20064;-62
2021/03/31 01:43:44;;;;;;;26.95;3.03;;;;;;;;;;4979838;28;20485;-61
2021/03/31 01:46:11;;;;;;;15.07;1.95;;;;;;;;;;4985302;28;20031;-62
2021/03/31 01:48:39;;;;;;;14.88;2.38;;;;;;;;;;4983215;28;20019;-61
2021/03/31 01:51:10;;;;;;;19.30;1.70;;;;;;;;;;4985623;28;20057;-57
2021/03/31 01:53:38;;;;;;;15.98;1.77;;;;;;;;;;4979828;28;20479;-57
2021/03/31 01:56:06;;;;;;;15.00;1.75;;;;;;;;;;4978399;28;20491;-58
2021/03/31 01:58:35;;;;;;;15.60;2.00;;;;;;;;;;4985395;28;20038;-58
2021/03/31 02:01:02;;;;;;;17.17;2.13;;;;;;;;;;4986611;28;20153;-60
2021/03/31 02:03:30;;;;;;;15.00;1.73;;;;;;;;;;4984456;28;20081;-61
2021/03/31 02:05:57;;;;;;;13.02;2.50;;;;;;;;;;4974852;28;20039;-60
2021/03/31 02:08:25;;;;;;;16.15;2.22;;;;;;;;;;4974498;28;20097;-60
2021/03/31 02:10:52;;;;;;;10.48;1.85;;;;;;;;;;4977972;28;20109;-58
2021/03/31 02:13:20;;;;;;;9.43;1.67;;;;;;;;;;4978098;28;20014;-57
2021/03/31 02:15:49;;;;;;;12.45;1.77;;;;;;;;;;4984605;28;20035;-58
2021/03/31 02:18:18;;;;;;;17.45;1.60;;;;;;;;;;4981432;28;20026;-57
2021/03/31 02:20:52;;;;;;;12.68;1.70;;;;;;;;;;4959259;28;20487;-58
2021/03/31 02:23:20;;;;;;;9.55;1.48;;;;;;;;;;4983686;28;20015;-57
2021/03/31 02:25:48;;;;;;;5.53;1.65;;;;;;;;;;4986927;28;20029;-58
2021/03/31 02:28:15;;;;;;;7.47;1.75;;;;;;;;;;4982482;28;20102;-57
2021/03/31 02:30:42;;;;;;;8.52;1.60;;;;;;;;;;4981584;28;20081;-56
2021/03/31 02:33:11;;;;;;;11.68;1.85;;;;;;;;;;4984728;28;20015;-57
2021/03/31 02:35:38;;;;;;;8.25;1.52;;;;;;;;;;4982353;28;20040;-56
2021/03/31 02:38:07;;;;;;;8.25;1.73;;;;;;;;;;4966132;28;20109;-57
2021/03/31 02:40:36;;;;;;;6.90;1.55;;;;;;;;;;4964899;28;20023;-58
2021/03/31 02:43:06;;;;;;;8.15;1.70;;;;;;;;;;4980925;28;20113;-57
2021/03/31 02:45:34;;;;;;;5.90;1.10;;;;;;;;;;4981272;28;20728;-57
2021/03/31 02:48:02;;;;;;;5.78;1.27;;;;;;;;;;4989085;28;20053;-58
2021/03/31 02:50:30;;;;;;;4.55;1.30;;;;;;;;;;4992548;28;20034;-58
2021/03/31 02:52:58;;;;;;;6.10;1.10;;;;;;;;;;4992228;28;20011;-57
2021/03/31 02:55:26;;;;;;;6.97;1.60;;;;;;;;;;4992352;28;20429;-57
2021/03/31 02:57:54;;;;;;;7.53;1.50;;;;;;;;;;4992516;28;20064;-57
2021/03/31 03:00:21;;;;;;;8.57;1.48;;;;;;;;;;4992098;28;20088;-57
2021/03/31 03:02:49;;;;;;;6.10;1.25;;;;;;;;;;4992524;28;20026;-56
2021/03/31 03:05:17;;;;;;;4.35;1.10;;;;;;;;;;4992632;28;20105;-58
2021/03/31 03:07:44;;;;;;;4.38;1.20;;;;;;;;;;4992488;28;20034;-57
2021/03/31 03:10:12;;;;;;;5.80;1.33;;;;;;;;;;4992881;28;20022;-57
2021/03/31 03:12:43;;;;;;;5.47;1.45;;;;;;;;;;4992296;28;20379;-57
2021/03/31 03:15:12;;;;;;;6.55;1.13;;;;;;;;;;4975223;28;20081;-57
2021/03/31 03:17:40;;;;;;;4.38;1.00;;;;;;;;;;4986631;28;20470;-56
2021/03/31 03:20:09;;;;;;;7.13;1.10;;;;;;;;;;4986775;28;20031;-57
2021/03/31 03:22:38;;;;;;;4.20;1.13;;;;;;;;;;4992524;28;20133;-57
2021/03/31 03:25:06;;;;;;;4.90;0.90;;;;;;;;;;4991772;28;20022;-57
2021/03/31 03:27:33;;;;;;;4.00;1.17;;;;;;;;;;4992312;28;20026;-57
2021/03/31 03:30:00;;;;;;;5.25;1.40;;;;;;;;;;4991873;28;20386;-58
2021/03/31 03:32:27;;;;;;;7.00;0.98;;;;;;;;;;4992361;28;20034;-57
2021/03/31 03:34:55;;;;;;;2.90;0.88;;;;;;;;;;4991470;28;20030;-57
2021/03/31 03:37:23;;;;;;;7.75;1.00;;;;;;;;;;4992390;28;20128;-57
2021/03/31 03:39:50;;;;;;;3.95;1.02;;;;;;;;;;4992115;28;20022;-57
2021/03/31 03:42:17;;;;;;;3.95;1.10;;;;;;;;;;4996431;28;20122;-55
2021/03/31 03:44:44;;;;;;;4.88;0.80;;;;;;;;;;4995656;28;20296;-56
2021/03/31 03:47:11;;;;;;;4.07;1.00;;;;;;;;;;4996102;28;20046;-56
2021/03/31 03:49:39;;;;;;;4.28;1.00;;;;;;;;;;4984057;28;20529;-57
2021/03/31 03:52:07;;;;;;;4.82;1.00;;;;;;;;;;4995836;28;20101;-57
2021/03/31 03:54:34;;;;;;;6.78;1.23;;;;;;;;;;4996001;28;20433;-57
2021/03/31 03:57:01;;;;;;;3.78;0.60;;;;;;;;;;4978089;28;20042;-56
2021/03/31 03:59:29;;;;;;;4.68;1.15;;;;;;;;;;4979225;28;20471;-57
2021/03/31 04:01:56;;;;;;;3.95;0.80;;;;;;;;;;4976437;28;20031;-56
2021/03/31 04:04:24;;;;;;;2.22;0.80;;;;;;;;;;4976477;28;20023;-55
2021/03/31 04:06:51;;;;;;;2.78;1.10;;;;;;;;;;4975964;28;20434;-58
2021/03/31 04:09:18;;;;;;;4.63;0.90;;;;;;;;;;4976305;28;20039;-57
2021/03/31 04:11:45;;;;;;;2.85;0.77;;;;;;;;;;4975874;28;20023;-57
2021/03/31 04:14:13;;;;;;;3.53;0.90;;;;;;;;;;4976416;28;20031;-57
2021/03/31 04:16:40;;;;;;;4.30;1.15;;;;;;;;;;4992078;28;20034;-57
2021/03/31 04:19:09;;;;;;;3.05;0.82;;;;;;;;;;4995649;28;20034;-56
2021/03/31 04:21:37;;;;;;;5.13;0.80;;;;;;;;;;4995389;28;20061;-56
2021/03/31 04:24:04;;;;;;;2.42;0.80;;;;;;;;;;4995347;28;20029;-57
2021/03/31 04:26:32;;;;;;;3.72;0.65;;;;;;;;;;4995507;28;20027;-57
2021/03/31 04:28:59;;;;;;;5.55;0.75;;;;;;;;;;4994979;28;20026;-57
2021/03/31 04:31:28;;;;;;;2.83;0.70;;;;;;;;;;4995508;28;20033;-57
2021/03/31 04:33:56;;;;;;;3.72;0.75;;;;;;;;;;4994921;28;20505;-57
2021/03/31 04:36:23;;;;;;;1.73;0.88;;;;;;;;;;4995395;28;20034;-57
2021/03/31 04:38:51;;;;;;;2.53;0.70;;;;;;;;;;4994619;28;20022;-57
2021/03/31 04:41:18;;;;;;;2.78;0.70;;;;;;;;;;4995218;28;20026;-58
2021/03/31 04:43:45;;;;;;;2.63;0.73;;;;;;;;;;4995356;28;20105;-56
2021/03/31 04:46:12;;;;;;;3.90;0.70;;;;;;;;;;4995062;28;20045;-57
2021/03/31 04:48:40;;;;;;;2.30;0.60;;;;;;;;;;4995160;28;20137;-56
2021/03/31 04:51:08;;;;;;;5.60;0.90;;;;;;;;;;4994173;28;20038;-57
2021/03/31 04:53:35;;;;;;;3.78;0.88;;;;;;;;;;4995064;28;20109;-58
2021/03/31 04:56:02;;;;;;;3.13;1.10;;;;;;;;;;4994642;28;20085;-54
2021/03/31 04:58:29;;;;;;;2.95;0.60;;;;;;;;;;4994999;28;20085;-57
2021/03/31 05:00:56;;;;;;;1.55;0.60;;;;;;;;;;4994243;28;20772;-57
2021/03/31 05:03:23;;;;;;;1.35;0.63;;;;;;;;;;4994958;28;20065;-57
2021/03/31 05:05:50;;;;;;;4.53;1.00;;;;;;;;;;4994702;28;20037;-57
2021/03/31 05:08:17;;;;;;;1.73;0.60;;;;;;;;;;4994123;28;20048;-58
2021/03/31 05:10:44;;;;;;;1.55;0.73;;;;;;;;;;4994516;28;20495;-57
2021/03/31 05:13:11;;;;;;;3.35;1.08;;;;;;;;;;4994080;28;20034;-57
2021/03/31 05:15:38;;;;;;;3.13;0.70;;;;;;;;;;4994718;28;20525;-56
2021/03/31 05:18:05;;;;;;;1.85;0.55;;;;;;;;;;4994036;28;20039;-54
2021/03/31 05:20:33;;;;;;;4.75;0.70;;;;;;;;;;4994295;28;20026;-56
2021/03/31 05:23:00;;;;;;;4.65;1.00;;;;;;;;;;4993777;28;20031;-57
2021/03/31 05:25:27;;;;;;;1.15;0.57;;;;;;;;;;4994726;28;20034;-56
2021/03/31 05:27:55;;;;;;;3.13;0.60;;;;;;;;;;4994054;28;20125;-56
2021/03/31 05:30:22;;;;;;;2.28;0.77;;;;;;;;;;4994568;28;20084;-56
2021/03/31 05:32:49;;;;;;;2.78;0.60;;;;;;;;;;4993925;28;20026;-55
2021/03/31 05:35:27;;;;;;;2.35;0.77;;;;;;;;;;4994105;28;20033;-55
2021/03/31 05:37:54;;;;;;;5.38;0.88;;;;;;;;;;4994329;28;20034;-54
2021/03/31 05:40:21;;;;;;;3.55;1.10;;;;;;;;;;4993856;28;20046;-57
2021/03/31 05:42:48;;;;;;;3.22;0.60;;;;;;;;;;4994085;28;20048;-57
2021/03/31 05:45:15;;;;;;;1.92;0.60;;;;;;;;;;4993717;28;20548;-57
2021/03/31 05:47:44;;;;;;;2.58;0.60;;;;;;;;;;4994092;28;20029;-57
2021/03/31 05:50:15;;;;;;;3.85;0.70;;;;;;;;;;4993629;28;20022;-57
2021/03/31 05:52:43;;;;;;;3.40;0.50;;;;;;;;;;4993670;28;20019;-56
2021/03/31 05:55:10;;;;;;;2.08;0.52;;;;;;;;;;4993250;28;20026;-56
2021/03/31 05:57:39;;;;;;;1.40;0.50;;;;;;;;;;4994012;28;20106;-56
2021/03/31 06:00:08;;;;;;;2.30;0.68;;;;;;;;;;4993256;28;20033;-56
2021/03/31 06:02:36;;;;;;;3.50;0.50;;;;;;;;;;4992705;28;20026;-56
2021/03/31 06:05:03;;;;;;;3.97;0.82;;;;;;;;;;4993254;28;20027;-56
2021/03/31 06:07:30;;;;;;;2.50;0.50;;;;;;;;;;4993686;28;20025;-56
2021/03/31 06:10:05;;;;;;;3.67;0.60;;;;;;;;;;4993539;28;20043;-55
2021/03/31 06:12:33;;;;;;;4.88;0.63;;;;;;;;;;4993154;28;20034;-56
2021/03/31 06:15:16;;;;;;;3.38;1.20;;;;;;;;;;4993396;28;20034;-56
2021/03/31 06:17:54;;;;;;;3.70;0.60;;;;;;;;;;4993038;28;20126;-56
2021/03/31 06:20:38;;;;;;;3.47;0.88;;;;;;;;;;4993195;28;20022;-56
2021/03/31 06:23:11;;;;;;;3.10;0.80;;;;;;;;;;4992646;28;20382;-55
2021/03/31 06:28:36;;;;;;;2.67;0.80;;;;;;;;;;4975658;28;20034;-56
2021/03/31 06:31:10;;;;;;;2.25;0.65;;;;;;;;;;4986399;28;20022;-56
2021/03/31 06:33:38;;;;;;;3.85;1.00;;;;;;;;;;4992685;28;20030;-57
2021/03/31 06:36:06;;;;;;;2.35;0.60;;;;;;;;;;4993125;28;20418;-55
2021/03/31 06:38:34;;;;;;;1.80;0.60;;;;;;;;;;4992480;28;20030;-55
2021/03/31 06:41:14;;;;;;;1.77;0.70;;;;;;;;;;4993140;28;20026;-56
2021/03/31 06:43:51;;;;;;;4.05;0.70;;;;;;;;;;4992384;28;20027;-56
2021/03/31 06:46:36;;;;;;;3.03;0.68;;;;;;;;;;4993157;28;20352;-56
2021/03/31 06:49:05;;;;;;;3.20;0.52;;;;;;;;;;4992425;28;20045;-56
2021/03/31 06:51:33;;;;;;;2.05;0.60;;;;;;;;;;4992807;28;20093;-56
2021/03/31 06:54:16;;;;;;;7.30;0.90;;;;;;;;;;4992073;28;20030;-56
2021/03/31 06:56:58;;;;;;;2.13;0.60;;;;;;;;;;4992725;28;20037;-57
2021/03/31 06:59:32;;;;;;;3.00;0.50;;;;;;;;;;4992150;28;20026;-56
2021/03/31 07:02:00;;;;;;;1.20;0.40;;;;;;;;;;4993060;28;20046;-56
2021/03/31 07:04:27;;;;;;;2.15;0.93;;;;;;;;;;4992375;28;20023;-56
2021/03/31 07:07:07;;;;;;;1.55;0.47;;;;;;;;;;4992593;28;20069;-56
2021/03/31 07:09:35;;;;;;;2.60;0.70;;;;;;;;;;4992263;28;20117;-56
2021/03/31 07:12:02;;;;;;;2.03;0.63;;;;;;;;;;4992710;28;20026;-56
2021/03/31 07:14:29;;;;;;;2.17;0.50;;;;;;;;;;4991292;28;20014;-54
2021/03/31 07:16:57;;;;;;;3.03;0.57;;;;;;;;;;4992342;28;20117;-56
2021/03/31 07:19:26;;;;;;;4.25;0.60;;;;;;;;;;4992154;28;20132;-56
2021/03/31 07:21:53;;;;;;;2.17;0.52;;;;;;;;;;4992249;28;20049;-56
2021/03/31 07:24:20;;;;;;;2.35;0.68;;;;;;;;;;4992199;28;20109;-55
2021/03/31 07:26:48;;;;;;;2.85;0.63;;;;;;;;;;4991853;28;20393;-55
2021/03/31 07:29:18;;;;;;;4.18;1.00;;;;;;;;;;4992713;28;20049;-57
2021/03/31 07:31:45;;;;;;;2.25;0.60;;;;;;;;;;4991877;28;20069;-57
2021/03/31 07:34:19;;;;;;;3.92;0.70;;;;;;;;;;4992285;28;20474;-57
2021/03/31 07:36:48;;;;;;;3.05;0.75;;;;;;;;;;4991949;28;20446;-57
2021/03/31 07:39:17;;;;;;;3.28;0.68;;;;;;;;;;4992321;28;20429;-57
2021/03/31 07:41:45;;;;;;;5.03;0.77;;;;;;;;;;4991915;28;20030;-57
2021/03/31 07:44:16;;;;;;;3.60;0.60;;;;;;;;;;4992140;28;20030;-56
2021/03/31 07:46:45;;;;;;;4.18;0.60;;;;;;;;;;4992115;28;20058;-56
2021/03/31 07:49:13;;;;;;;4.55;0.73;;;;;;;;;;4992191;28;20027;-56
2021/03/31 07:51:55;;;;;;;2.05;0.70;;;;;;;;;;4992259;28;20022;-54
2021/03/31 07:54:22;;;;;;;2.83;0.70;;;;;;;;;;4991793;28;20022;-57
2021/03/31 07:56:49;;;;;;;3.67;0.50;;;;;;;;;;4992286;28;20034;-56
2021/03/31 07:59:18;;;;;;;1.95;0.68;;;;;;;;;;4991682;28;20110;-54
2021/03/31 08:01:46;;;;;;;3.70;0.93;;;;;;;;;;4992232;28;20080;-57
2021/03/31 08:04:14;;;;;;;2.97;0.55;;;;;;;;;;4991492;28;20503;-57
2021/03/31 08:06:42;;;;;;;4.18;0.70;;;;;;;;;;4991946;28;20034;-56
2021/03/31 08:09:13;;;;;;;1.48;0.50;;;;;;;;;;4991334;28;20132;-55
2021/03/31 08:11:40;;;;;;;2.50;0.55;;;;;;;;;;4992279;28;20486;-57
2021/03/31 08:14:07;;;;;;;2.33;0.50;;;;;;;;;;4991385;28;20026;-56
2021/03/31 08:16:40;;;;;;;2.50;0.73;;;;;;;;;;4991472;28;20030;-56
2021/03/31 08:19:31;;;;;;;2.25;0.50;;;;;;;;;;4974115;28;20034;-55
2021/03/31 08:21:59;;;;;;;3.70;0.70;;;;;;;;;;4991993;28;20029;-57
2021/03/31 08:24:45;;;;;;;2.08;0.70;;;;;;;;;;4991521;28;20582;-54
2021/03/31 08:27:13;;;;;;;2.97;0.68;;;;;;;;;;4994875;28;20022;-57
2021/03/31 08:29:42;;;;;;;3.15;0.68;;;;;;;;;;4995322;28;20049;-56
2021/03/31 08:32:11;;;;;;;4.78;0.68;;;;;;;;;;4995373;28;20026;-56
2021/03/31 08:34:39;;;;;;;3.33;1.10;;;;;;;;;;4995284;28;20421;-57
2021/03/31 08:37:07;;;;;;;1.80;0.60;;;;;;;;;;4994970;28;20045;-56
2021/03/31 08:39:34;;;;;;;4.18;0.75;;;;;;;;;;4995418;28;20034;-56
2021/03/31 08:42:01;;;;;;;2.83;0.45;;;;;;;;;;4994912;28;20023;-57
2021/03/31 08:44:42;;;;;;;2.53;0.60;;;;;;;;;;4995060;28;20027;-55
2021/03/31 08:47:09;;;;;;;5.10;0.70;;;;;;;;;;4994920;28;20110;-57
2021/03/31 08:49:36;;;;;;;1.80;0.60;;;;;;;;;;4995169;28;20022;-56
2021/03/31 08:52:05;;;;;;;3.22;0.65;;;;;;;;;;4994724;28;20100;-56
2021/03/31 08:54:38;;;;;;;5.72;0.82;;;;;;;;;;4995096;28;20019;-56
2021/03/31 08:57:09;;;;;;;0.80;0.60;;;;;;;;;;4994213;28;20038;-55
2021/03/31 08:59:37;;;;;;;2.75;0.80;;;;;;;;;;4995022;28;20104;-56
2021/03/31 09:02:06;;;;;;;3.95;0.80;;;;;;;;;;4995126;28;20030;-55
2021/03/31 09:04:33;;;;;;;3.13;0.80;;;;;;;;;;4994364;28;20022;-56
2021/03/31 09:07:02;;;;;;;1.92;0.57;;;;;;;;;;4994862;28;20026;-56
2021/03/31 09:09:36;;;;;;;2.78;0.60;;;;;;;;;;4994343;28;20383;-56
2021/03/31 09:12:07;;;;;;;1.80;0.43;;;;;;;;;;4977471;28;20030;-56
2021/03/31 09:14:34;;;;;;;3.53;0.60;;;;;;;;;;4994161;28;20030;-54
2021/03/31 09:17:06;;;;;;;1.67;0.63;;;;;;;;;;4994618;28;20042;-56
2021/03/31 09:19:34;;;;;;;5.03;0.83;;;;;;;;;;4994396;28;20445;-56
2021/03/31 09:22:13;;;;;;;4.82;0.60;;;;;;;;;;4977435;28;20084;-56
2021/03/31 09:24:42;;;;;;;1.92;0.60;;;;;;;;;;4993837;28;20022;-56
2021/03/31 09:27:19;;;;;;;3.63;0.77;;;;;;;;;;4994648;28;20498;-56
2021/03/31 09:29:46;;;;;;;3.65;0.60;;;;;;;;;;4994201;28;20062;-54
2021/03/31 09:32:18;;;;;;;1.30;0.50;;;;;;;;;;4994942;28;20054;-56
2021/03/31 09:34:45;;;;;;;1.23;0.43;;;;;;;;;;4993940;28;20452;-55
2021/03/31 09:37:18;;;;;;;1.70;0.63;;;;;;;;;;4993250;28;20030;-56
2021/03/31 09:39:53;;;;;;;4.15;0.60;;;;;;;;;;4994399;28;20023;-56
2021/03/31 09:42:21;;;;;;;2.13;0.63;;;;;;;;;;4993962;28;20026;-56
2021/03/31 09:44:50;;;;;;;5.45;0.70;;;;;;;;;;4994140;28;20497;-56
2021/03/31 09:47:18;;;;;;;1.98;0.68;;;;;;;;;;4993258;28;20022;-55
2021/03/31 09:49:45;;;;;;;5.28;0.70;;;;;;;;;;4994274;28;20026;-56
2021/03/31 09:52:13;;;;;;;3.78;1.35;;;;;;;;;;4993678;28;20089;-56
2021/03/31 09:54:46;;;;;;;3.70;0.95;;;;;;;;;;4993917;28;20114;-57
2021/03/31 09:57:15;;;;;;;5.25;1.05;;;;;;;;;;4993163;28;20042;-56
2021/03/31 09:59:42;;;;;;;2.45;0.90;;;;;;;;;;4993845;28;20026;-55
2021/03/31 10:02:10;;;;;;;1.67;0.60;;;;;;;;;;4993219;28;20153;-53
2021/03/31 10:04:40;;;;;;;2.38;0.60;;;;;;;;;;4993913;28;20015;-56
2021/03/31 10:07:14;;;;;;;5.13;0.60;;;;;;;;;;4993113;28;20380;-56
2021/03/31 10:09:41;;;;;;;3.28;0.88;;;;;;;;;;4993525;28;20050;-54
2021/03/31 10:12:09;;;;;;;3.60;0.60;;;;;;;;;;4993796;28;20474;-56
2021/03/31 10:14:46;;;;;;;3.70;0.90;;;;;;;;;;4993152;28;20109;-55
2021/03/31 10:17:13;;;;;;;3.80;0.80;;;;;;;;;;4993383;28;20031;-55
2021/03/31 10:19:40;;;;;;;3.63;0.60;;;;;;;;;;4993085;28;20026;-56
2021/03/31 10:22:08;;;;;;;2.75;0.77;;;;;;;;;;4993503;28;20081;-56
2021/03/31 10:24:36;;;;;;;2.88;0.70;;;;;;;;;;4993010;28;20105;-55
2021/03/31 10:27:04;;;;;;;3.95;0.80;;;;;;;;;;4992979;28;20022;-58
2021/03/31 10:29:51;;;;;;;4.43;0.95;;;;;;;;;;4992698;28;20462;-57
2021/03/31 10:32:19;;;;;;;2.28;0.75;;;;;;;;;;4993226;28;20022;-57
2021/03/31 10:34:48;;;;;;;4.18;0.90;;;;;;;;;;4992931;28;20026;-57
2021/03/31 10:37:51;;;;;;;2.00;0.65;;;;;;;;;;4992844;28;20117;-58
2021/03/31 10:51:12;;;;;;;3.58;0.80;;;;;;;;;;4972897;28;20039;-58
2021/03/31 10:53:44;;;;;;;5.38;0.80;;;;;;;;;;4972231;28;20027;-59
2021/03/31 10:56:12;;;;;;;3.20;0.73;;;;;;;;;;4955092;28;20066;-56
2021/03/31 10:58:42;;;;;;;4.47;0.80;;;;;;;;;;4973602;28;20102;-58
2021/03/31 11:01:12;;;;;;;4.20;0.63;;;;;;;;;;4973506;28;20475;-59
2021/03/31 11:03:40;;;;;;;6.03;0.98;;;;;;;;;;4972952;28;20389;-58
2021/03/31 11:06:07;;;;;;;15.65;2.85;;;;;;;;;;4983693;28;20415;-58
2021/03/31 11:08:34;;;;;;;4.57;0.80;;;;;;;;;;4991741;28;20062;-58
2021/03/31 11:11:01;;;;;;;6.00;1.00;;;;;;;;;;4992553;28;20037;-57
2021/03/31 11:13:28;;;;;;;3.83;0.80;;;;;;;;;;4992032;28;20022;-53
2021/03/31 11:15:56;;;;;;;24.52;2.10;;;;;;;;;;4980939;28;20129;-46
2021/03/31 11:18:28;;;;;;;25.08;2.10;;;;;;;;;;4989589;28;20022;-50
2021/03/31 11:21:13;;;;;;;21.08;1.90;;;;;;;;;;4990156;28;20037;-52
2021/03/31 11:26:25;;;;;;;34.95;4.00;;;;;;;;;;4983875;28;20053;-55
2021/03/31 11:28:52;;;;;;;24.38;2.40;;;;;;;;;;4990700;28;20018;-54
2021/03/31 11:31:19;;;;;;;18.77;2.25;;;;;;;;;;4982821;28;20411;-55
2021/03/31 11:33:46;;;;;;;25.33;2.92;;;;;;;;;;4988649;28;20026;-58
2021/03/31 11:36:13;;;;;;;22.63;3.30;;;;;;;;;;4990597;28;20080;-59
2021/03/31 11:38:41;;;;;;;12.27;2.03;;;;;;;;;;4989897;28;20015;-63
2021/03/31 11:41:08;;;;;;;8.30;1.83;;;;;;;;;;4962979;28;20034;-60
2021/03/31 11:43:35;;;;;;;18.20;2.05;;;;;;;;;;4983789;28;20015;-60
2021/03/31 11:46:02;;;;;;;12.18;2.33;;;;;;;;;;4972262;28;20027;-58
2021/03/31 11:48:29;;;;;;;90.00;7.82;;;;;;;;;;4978688;28;20462;-59
2021/03/31 11:50:57;;;;;;;30.65;2.97;;;;;;;;;;4973763;28;20091;-60
2021/03/31 11:53:29;;;;;;;10.23;2.10;;;;;;;;;;4985965;28;20420;-60
2021/03/31 11:55:57;;;;;;;18.02;1.73;;;;;;;;;;4984012;28;20042;-58
2021/03/31 11:58:24;;;;;;;7.05;1.67;;;;;;;;;;4979676;28;20022;-65
2021/03/31 12:00:51;;;;;;;10.10;1.55;;;;;;;;;;4974698;28;20026;-57
2021/03/31 12:03:20;;;;;;;9.05;1.42;;;;;;;;;;4988747;28;20026;-55
2021/03/31 12:05:47;;;;;;;7.78;1.60;;;;;;;;;;4991984;28;20018;-64
2021/03/31 12:08:14;;;;;;;12.60;1.95;;;;;;;;;;4989591;28;20096;-62
2021/03/31 12:10:41;;;;;;;8.07;1.58;;;;;;;;;;4981414;28;20491;-63
2021/03/31 12:13:08;;;;;;;7.05;1.40;;;;;;;;;;4976696;28;20088;-55
2021/03/31 12:15:35;;;;;;;7.88;1.38;;;;;;;;;;4981094;28;20026;-70
2021/03/31 12:18:02;;;;;;;8.50;1.50;;;;;;;;;;4984640;28;20474;-59
2021/03/31 12:20:29;;;;;;;7.93;1.52;;;;;;;;;;4984735;28;20065;-63
2021/03/31 12:22:56;;;;;;;11.45;1.80;;;;;;;;;;4991643;28;20026;-71
2021/03/31 12:25:24;;;;;;;10.15;1.95;;;;;;;;;;4986686;28;20033;-61
2021/03/31 12:27:55;;;;;;;10.20;1.50;;;;;;;;;;4989868;28;20438;-70
2021/03/31 12:30:23;;;;;;;8.20;1.40;;;;;;;;;;4994266;28;20134;-62
2021/03/31 12:32:50;;;;;;;6.30;1.40;;;;;;;;;;4984242;28;20022;-68
2021/03/31 12:35:17;;;;;;;10.82;1.30;;;;;;;;;;4985546;28;20014;-64
2021/03/31 12:37:44;;;;;;;5.80;1.30;;;;;;;;;;4988102;28;20030;-61
2021/03/31 12:40:12;;;;;;;8.27;1.33;;;;;;;;;;4985966;28;20027;-65
2021/03/31 12:42:39;;;;;;;15.43;2.47;;;;;;;;;;4988291;28;20027;-66
2021/03/31 12:45:07;;;;;;;11.85;1.92;;;;;;;;;;4982526;28;20042;-63
2021/03/31 12:47:35;;;;;;;8.45;1.88;;;;;;;;;;4978224;28;20031;-63
2021/03/31 12:50:03;;;;;;;11.18;1.63;;;;;;;;;;4987846;28;20493;-63
2021/03/31 12:52:37;;;;;;;7.57;1.50;;;;;;;;;;4969746;28;20031;-63
2021/03/31 12:55:07;;;;;;;7.50;1.25;;;;;;;;;;4993505;28;20117;-59
2021/03/31 12:57:34;;;;;;;6.18;1.50;;;;;;;;;;4985100;28;20038;-64
2021/03/31 13:00:03;;;;;;;11.43;1.50;;;;;;;;;;4980017;28;20030;-66
2021/03/31 13:02:30;;;;;;;17.05;1.83;;;;;;;;;;4978754;28;20053;-64
2021/03/31 13:04:57;;;;;;;9.23;1.25;;;;;;;;;;4987426;28;20102;-62
2021/03/31 13:07:26;;;;;;;8.88;1.15;;;;;;;;;;4988213;28;20078;-62
2021/03/31 13:09:53;;;;;;;17.35;2.00;;;;;;;;;;4979968;28;20501;-65
2021/03/31 13:15:33;;;;;;;12.48;1.80;;;;;;;;;;4940756;28;20486;-66
2021/03/31 13:23:49;;;;;;;8.38;1.40;;;;;;;;;;4986888;28;20073;-62
2021/03/31 13:26:18;;;;;;;17.63;1.90;;;;;;;;;;4986291;28;20408;-66
2021/03/31 13:29:23;;;;;;;12.27;1.65;;;;;;;;;;4982393;28;20085;-67
2021/03/31 13:34:24;;;;;;;6.82;1.38;;;;;;;;;;4989175;28;20036;-63
2021/03/31 13:36:58;;;;;;;18.83;2.00;;;;;;;;;;4989312;28;20401;-73
2021/03/31 13:39:34;;;;;;;7.38;2.08;;;;;;;;;;4981639;28;20514;-66
2021/03/31 13:42:01;;;;;;;10.93;1.70;;;;;;;;;;4986282;28;20118;-62
2021/03/31 13:44:28;;;;;;;8.60;1.60;;;;;;;;;;4987492;28;20015;-63
2021/03/31 13:47:00;;;;;;;5.43;1.17;;;;;;;;;;4979166;28;20030;-68
2021/03/31 13:49:33;;;;;;;7.50;1.30;;;;;;;;;;4978947;28;20011;-66
2021/03/31 13:52:10;;;;;;;19.67;2.20;;;;;;;;;;4979082;28;20037;-64
2021/03/31 13:54:50;;;;;;;8.00;1.67;;;;;;;;;;4961713;28;20378;-66
2021/03/31 13:57:22;;;;;;;11.40;1.35;;;;;;;;;;4972989;28;20041;-72
2021/03/31 13:59:49;;;;;;;7.57;1.40;;;;;;;;;;4975479;28;20034;-64
2021/03/31 14:02:16;;;;;;;7.35;1.73;;;;;;;;;;4977734;28;20491;-64
2021/03/31 14:04:44;;;;;;;11.75;1.77;;;;;;;;;;4985554;28;20443;-64
2021/03/31 14:07:11;;;;;;;17.00;2.10;;;;;;;;;;4983885;28;20471;-65
2021/03/31 14:09:38;;;;;;;6.75;1.55;;;;;;;;;;4987606;28;20100;-63
2021/03/31 14:12:07;;;;;;;12.88;2.03;;;;;;;;;;4979961;28;20026;-66
2021/03/31 14:14:34;;;;;;;9.45;1.77;;;;;;;;;;4974213;28;20023;-66
2021/03/31 14:17:13;;;;;;;9.20;1.50;;;;;;;;;;4990045;28;20577;-67
2021/03/31 14:19:46;;;;;;;9.68;1.80;;;;;;;;;;4985331;28;20561;-66
2021/03/31 14:22:13;;;;;;;7.72;1.33;;;;;;;;;;4991252;28;20023;-66
2021/03/31 14:24:40;;;;;;;9.65;1.50;;;;;;;;;;4980181;28;20014;-65
2021/03/31 14:27:07;;;;;;;10.38;1.45;;;;;;;;;;4987137;28;20030;-66
2021/03/31 14:29:35;;;;;;;11.00;1.40;;;;;;;;;;4987924;28;20022;-65
2021/03/31 14:32:01;;;;;;;7.15;1.80;;;;;;;;;;4988752;28;20448;-66
2021/03/31 14:34:29;;;;;;;15.13;1.88;;;;;;;;;;4981497;28;20387;-66
2021/03/31 14:36:56;;;;;;;11.50;1.80;;;;;;;;;;4974081;28;20034;-67
2021/03/31 14:39:23;;;;;;;10.20;1.40;;;;;;;;;;4976392;28;20049;-62
2021/03/31 14:41:50;;;;;;;14.10;2.05;;;;;;;;;;4974743;28;20031;-67
2021/03/31 14:44:17;;;;;;;9.05;1.40;;;;;;;;;;4986055;28;20026;-66
2021/03/31 14:46:44;;;;;;;7.07;1.77;;;;;;;;;;4988710;28;20026;-66
2021/03/31 14:49:13;;;;;;;8.07;1.25;;;;;;;;;;4987909;28;20385;-66
2021/03/31 14:59:53;;;;;;;10.52;1.60;;;;;;;;;;4972780;28;20429;-67
2021/03/31 15:02:20;;;;;;;10.20;1.95;;;;;;;;;;4979463;28;20042;-67
2021/03/31 15:04:47;;;;;;;7.63;1.55;;;;;;;;;;4988983;28;20085;-66
2021/03/31 15:07:14;;;;;;;19.60;1.80;;;;;;;;;;4979305;28;20478;-65
2021/03/31 15:09:42;;;;;;;8.18;1.50;;;;;;;;;;4979550;28;20082;-65
2021/03/31 15:12:09;;;;;;;14.90;1.67;;;;;;;;;;4987563;28;20106;-66
2021/03/31 15:14:36;;;;;;;10.38;1.80;;;;;;;;;;4982813;28;20029;-65
2021/03/31 15:17:05;;;;;;;24.08;2.78;;;;;;;;;;4988598;28;20174;-66
2021/03/31 15:19:38;;;;;;;20.00;2.13;;;;;;;;;;4985066;28;20022;-65
2021/03/31 15:24:39;;;;;;;12.30;1.83;;;;;;;;;;4987778;28;20031;-65
2021/03/31 15:27:06;;;;;;;7.85;1.55;;;;;;;;;;4985442;28;20022;-66
2021/03/31 15:29:34;;;;;;;11.90;1.52;;;;;;;;;;4985395;28;20481;-66